This is the latest recevied weather packets stored in our database for station/object SY3EBK-13. If no packets are shown the sender has not sent any weather packets the latest 10 day(s).
| Time | Temp. | Humidity | Pressure | Rain* | Wind** | Luminosity | Snow |
|---|---|---|---|---|---|---|---|
| 1788332355 | 26.67° C | 40% | 917.4 hPa | - | 0 m/s | - | - |
| 1788331455 | 26.11° C | 39% | 917.3 hPa | - | 0 m/s | - | - |
| 1788330555 | 25.56° C | 39% | 917.3 hPa | - | 0 m/s | - | - |
| 1788329655 | 25° C | 41% | 917.3 hPa | - | 0 m/s | - | - |
| 1788328755 | 24.44° C | 42% | 917.2 hPa | - | 0 m/s | - | - |
| 1788327855 | 23.89° C | 43% | 917.2 hPa | - | 0 m/s | - | - |
| 1788324256 | 22.22° C | 54% | 917.2 hPa | - | 0 m/s | - | - |
| 1788299955 | 24.44° C | 44% | 917.1 hPa | - | 0 m/s | - | - |
| 1788298155 | 25° C | 47% | 917 hPa | - | 0 m/s | - | - |
| 1788297255 | 25° C | 45% | 917 hPa | - | 0 m/s | - | - |
| 1788296355 | 25.56° C | 41% | 917 hPa | - | 0 m/s | - | - |
| 1788295456 | 25.56° C | 43% | 917.1 hPa | - | 0 m/s | - | - |
| 1788294556 | 25.56° C | 43% | 917.2 hPa | - | 0 m/s | - | - |
| 1788293655 | 26.11° C | 43% | 917.2 hPa | - | 0 m/s | - | - |
| 1788292755 | 26.11° C | 43% | 917.3 hPa | - | 0 m/s | - | - |
| 1788291856 | 26.11° C | 43% | 917.3 hPa | - | 0 m/s | - | - |
| 1788290956 | 26.11° C | 43% | 917.3 hPa | - | 0 m/s | - | - |
| 1788290056 | 26.11° C | 44% | 917.2 hPa | - | 0 m/s | - | - |
| 1788289156 | 26.67° C | 44% | 917 hPa | - | 0 m/s | - | - |
| 1788288256 | 26.67° C | 44% | 916.9 hPa | - | 0 m/s | - | - |
| 1788287355 | 27.22° C | 44% | 916.7 hPa | - | 0 m/s | - | - |
| 1788286455 | 27.78° C | 43% | 916.6 hPa | - | 0 m/s | - | - |
| 1788285556 | 27.78° C | 43% | 916.6 hPa | - | 0 m/s | - | - |
| 1788283756 | 28.33° C | 40% | 916.2 hPa | - | 0 m/s | - | - |
| 1788282856 | 28.89° C | 40% | 916.2 hPa | - | 0 m/s | - | - |
* Rain since midnight (hover to see other rain measurements)
** Current wind speed in m/s (hover to see current wind gust speed)